sensor_id;sensor_type;location;lat;lon;timestamp;P1;durP1;ratioP1;P2;durP2;ratioP2
13698;SDS011;6921;53.642;9.956;2022-08-19T00:00:45;16.50;;;12.10;;
13698;SDS011;6921;53.642;9.956;2022-08-19T00:02:48;15.52;;;12.07;;
13698;SDS011;6921;53.642;9.956;2022-08-19T00:04:52;17.80;;;11.48;;
13698;SDS011;6921;53.642;9.956;2022-08-19T00:06:57;15.63;;;12.43;;
13698;SDS011;6921;53.642;9.956;2022-08-19T00:09:01;16.00;;;11.82;;
13698;SDS011;6921;53.642;9.956;2022-08-19T00:11:04;15.60;;;11.10;;
13698;SDS011;6921;53.642;9.956;2022-08-19T00:13:08;14.80;;;11.35;;
13698;SDS011;6921;53.642;9.956;2022-08-19T00:15:13;15.55;;;11.38;;
13698;SDS011;6921;53.642;9.956;2022-08-19T00:17:16;15.35;;;11.15;;
13698;SDS011;6921;53.642;9.956;2022-08-19T00:19:20;17.45;;;11.98;;
13698;SDS011;6921;53.642;9.956;2022-08-19T00:21:24;19.15;;;14.23;;
13698;SDS011;6921;53.642;9.956;2022-08-19T00:23:32;17.45;;;13.18;;
13698;SDS011;6921;53.642;9.956;2022-08-19T00:25:36;22.70;;;14.60;;
13698;SDS011;6921;53.642;9.956;2022-08-19T00:27:39;19.98;;;14.18;;
13698;SDS011;6921;53.642;9.956;2022-08-19T00:29:42;19.85;;;13.68;;
13698;SDS011;6921;53.642;9.956;2022-08-19T00:31:46;20.25;;;14.13;;
13698;SDS011;6921;53.642;9.956;2022-08-19T00:33:51;18.98;;;14.23;;
13698;SDS011;6921;53.642;9.956;2022-08-19T00:35:54;20.48;;;13.75;;
13698;SDS011;6921;53.642;9.956;2022-08-19T00:37:59;20.08;;;14.32;;
13698;SDS011;6921;53.642;9.956;2022-08-19T00:40:05;22.17;;;14.68;;
13698;SDS011;6921;53.642;9.956;2022-08-19T00:42:08;20.35;;;14.07;;
13698;SDS011;6921;53.642;9.956;2022-08-19T00:44:13;21.65;;;14.77;;
13698;SDS011;6921;53.642;9.956;2022-08-19T00:46:16;22.92;;;15.02;;
13698;SDS011;6921;53.642;9.956;2022-08-19T00:48:21;19.63;;;14.60;;
13698;SDS011;6921;53.642;9.956;2022-08-19T00:50:25;19.80;;;14.23;;
13698;SDS011;6921;53.642;9.956;2022-08-19T00:52:29;19.58;;;14.27;;
13698;SDS011;6921;53.642;9.956;2022-08-19T00:54:34;21.48;;;14.63;;
13698;SDS011;6921;53.642;9.956;2022-08-19T00:56:40;23.33;;;14.88;;
13698;SDS011;6921;53.642;9.956;2022-08-19T00:58:44;21.50;;;15.43;;
13698;SDS011;6921;53.642;9.956;2022-08-19T01:00:47;21.83;;;15.52;;
13698;SDS011;6921;53.642;9.956;2022-08-19T01:02:50;19.23;;;15.02;;
13698;SDS011;6921;53.642;9.956;2022-08-19T01:04:55;23.17;;;15.10;;
13698;SDS011;6921;53.642;9.956;2022-08-19T01:06:58;18.88;;;15.50;;
13698;SDS011;6921;53.642;9.956;2022-08-19T01:09:02;18.90;;;14.32;;
13698;SDS011;6921;53.642;9.956;2022-08-19T01:11:06;21.33;;;14.50;;
13698;SDS011;6921;53.642;9.956;2022-08-19T01:13:11;19.77;;;15.00;;
13698;SDS011;6921;53.642;9.956;2022-08-19T01:15:16;21.02;;;14.32;;
13698;SDS011;6921;53.642;9.956;2022-08-19T01:17:20;23.65;;;16.10;;
13698;SDS011;6921;53.642;9.956;2022-08-19T01:19:26;24.10;;;16.02;;
13698;SDS011;6921;53.642;9.956;2022-08-19T01:21:31;25.60;;;15.85;;
13698;SDS011;6921;53.642;9.956;2022-08-19T01:23:36;28.45;;;15.90;;
13698;SDS011;6921;53.642;9.956;2022-08-19T01:25:46;24.88;;;16.25;;
13698;SDS011;6921;53.642;9.956;2022-08-19T01:27:51;22.88;;;16.60;;
13698;SDS011;6921;53.642;9.956;2022-08-19T01:29:54;27.73;;;16.20;;
13698;SDS011;6921;53.642;9.956;2022-08-19T01:31:57;23.20;;;16.25;;
13698;SDS011;6921;53.642;9.956;2022-08-19T01:34:01;25.67;;;17.60;;
13698;SDS011;6921;53.642;9.956;2022-08-19T01:36:06;29.95;;;17.80;;
13698;SDS011;6921;53.642;9.956;2022-08-19T01:38:10;28.20;;;17.50;;
13698;SDS011;6921;53.642;9.956;2022-08-19T01:40:24;31.85;;;18.25;;
13698;SDS011;6921;53.642;9.956;2022-08-19T01:42:28;29.40;;;18.27;;
13698;SDS011;6921;53.642;9.956;2022-08-19T01:44:33;29.85;;;18.98;;
13698;SDS011;6921;53.642;9.956;2022-08-19T01:46:37;31.08;;;18.38;;
13698;SDS011;6921;53.642;9.956;2022-08-19T01:48:41;28.92;;;18.38;;
13698;SDS011;6921;53.642;9.956;2022-08-19T01:50:44;29.98;;;18.20;;
13698;SDS011;6921;53.642;9.956;2022-08-19T01:52:48;32.67;;;18.05;;
13698;SDS011;6921;53.642;9.956;2022-08-19T01:54:59;26.70;;;18.00;;
13698;SDS011;6921;53.642;9.956;2022-08-19T01:57:05;29.33;;;17.80;;
13698;SDS011;6921;53.642;9.956;2022-08-19T01:59:10;27.52;;;17.92;;
13698;SDS011;6921;53.642;9.956;2022-08-19T02:01:15;28.40;;;16.95;;
13698;SDS011;6921;53.642;9.956;2022-08-19T02:03:18;25.98;;;17.48;;
13698;SDS011;6921;53.642;9.956;2022-08-19T02:05:21;31.88;;;20.17;;
13698;SDS011;6921;53.642;9.956;2022-08-19T02:07:25;28.52;;;17.20;;
13698;SDS011;6921;53.642;9.956;2022-08-19T02:09:30;28.40;;;17.48;;
13698;SDS011;6921;53.642;9.956;2022-08-19T02:11:34;25.52;;;17.00;;
13698;SDS011;6921;53.642;9.956;2022-08-19T02:13:39;26.15;;;16.67;;
13698;SDS011;6921;53.642;9.956;2022-08-19T02:15:42;29.02;;;17.20;;
13698;SDS011;6921;53.642;9.956;2022-08-19T02:17:45;33.80;;;17.90;;
13698;SDS011;6921;53.642;9.956;2022-08-19T02:19:49;27.90;;;17.63;;
13698;SDS011;6921;53.642;9.956;2022-08-19T02:21:52;28.42;;;17.63;;
13698;SDS011;6921;53.642;9.956;2022-08-19T02:23:56;30.38;;;18.45;;
13698;SDS011;6921;53.642;9.956;2022-08-19T02:25:59;34.58;;;18.85;;
13698;SDS011;6921;53.642;9.956;2022-08-19T02:28:02;37.15;;;19.60;;
13698;SDS011;6921;53.642;9.956;2022-08-19T02:30:09;31.85;;;18.25;;
13698;SDS011;6921;53.642;9.956;2022-08-19T02:32:14;40.40;;;19.83;;
13698;SDS011;6921;53.642;9.956;2022-08-19T02:34:17;33.35;;;19.25;;
13698;SDS011;6921;53.642;9.956;2022-08-19T02:36:20;35.00;;;18.95;;
13698;SDS011;6921;53.642;9.956;2022-08-19T02:38:24;37.03;;;19.20;;
13698;SDS011;6921;53.642;9.956;2022-08-19T02:40:26;32.55;;;18.58;;
13698;SDS011;6921;53.642;9.956;2022-08-19T02:42:29;33.35;;;18.95;;
13698;SDS011;6921;53.642;9.956;2022-08-19T02:44:33;39.85;;;19.75;;
13698;SDS011;6921;53.642;9.956;2022-08-19T02:46:38;40.22;;;20.20;;
13698;SDS011;6921;53.642;9.956;2022-08-19T02:48:41;43.17;;;19.50;;
13698;SDS011;6921;53.642;9.956;2022-08-19T02:50:45;38.13;;;19.20;;
13698;SDS011;6921;53.642;9.956;2022-08-19T02:52:52;37.45;;;19.90;;
13698;SDS011;6921;53.642;9.956;2022-08-19T02:54:55;37.15;;;19.67;;
13698;SDS011;6921;53.642;9.956;2022-08-19T02:56:58;34.88;;;19.45;;
13698;SDS011;6921;53.642;9.956;2022-08-19T02:59:02;38.80;;;19.48;;
13698;SDS011;6921;53.642;9.956;2022-08-19T03:01:19;32.67;;;19.77;;
13698;SDS011;6921;53.642;9.956;2022-08-19T03:03:24;41.63;;;19.90;;
13698;SDS011;6921;53.642;9.956;2022-08-19T03:05:27;37.40;;;19.30;;
13698;SDS011;6921;53.642;9.956;2022-08-19T03:07:48;39.42;;;19.65;;
13698;SDS011;6921;53.642;9.956;2022-08-19T03:09:51;35.53;;;19.25;;
13698;SDS011;6921;53.642;9.956;2022-08-19T03:11:55;38.22;;;19.70;;
13698;SDS011;6921;53.642;9.956;2022-08-19T03:13:58;35.90;;;19.08;;
13698;SDS011;6921;53.642;9.956;2022-08-19T03:16:04;34.85;;;18.90;;
13698;SDS011;6921;53.642;9.956;2022-08-19T03:18:07;36.45;;;19.67;;
13698;SDS011;6921;53.642;9.956;2022-08-19T03:20:12;35.20;;;18.05;;
13698;SDS011;6921;53.642;9.956;2022-08-19T03:22:15;33.97;;;18.40;;
13698;SDS011;6921;53.642;9.956;2022-08-19T03:24:18;35.65;;;18.80;;
13698;SDS011;6921;53.642;9.956;2022-08-19T03:26:22;29.13;;;17.42;;
13698;SDS011;6921;53.642;9.956;2022-08-19T03:28:25;25.13;;;16.67;;
13698;SDS011;6921;53.642;9.956;2022-08-19T03:30:29;27.55;;;16.80;;
13698;SDS011;6921;53.642;9.956;2022-08-19T03:32:32;28.10;;;16.95;;
13698;SDS011;6921;53.642;9.956;2022-08-19T03:34:36;28.92;;;15.82;;
13698;SDS011;6921;53.642;9.956;2022-08-19T03:36:41;30.35;;;16.88;;
13698;SDS011;6921;53.642;9.956;2022-08-19T03:38:44;30.25;;;17.20;;
13698;SDS011;6921;53.642;9.956;2022-08-19T03:40:49;28.10;;;18.33;;
13698;SDS011;6921;53.642;9.956;2022-08-19T03:42:52;35.05;;;17.17;;
13698;SDS011;6921;53.642;9.956;2022-08-19T03:44:56;29.90;;;18.00;;
13698;SDS011;6921;53.642;9.956;2022-08-19T03:46:59;32.35;;;18.42;;
13698;SDS011;6921;53.642;9.956;2022-08-19T03:49:03;33.85;;;18.27;;
13698;SDS011;6921;53.642;9.956;2022-08-19T03:51:14;29.95;;;18.55;;
13698;SDS011;6921;53.642;9.956;2022-08-19T03:53:19;29.15;;;18.42;;
13698;SDS011;6921;53.642;9.956;2022-08-19T03:55:23;29.00;;;17.80;;
13698;SDS011;6921;53.642;9.956;2022-08-19T03:57:26;33.50;;;18.30;;
13698;SDS011;6921;53.642;9.956;2022-08-19T03:59:33;31.33;;;18.17;;
13698;SDS011;6921;53.642;9.956;2022-08-19T04:01:37;33.33;;;17.60;;
13698;SDS011;6921;53.642;9.956;2022-08-19T04:03:40;26.95;;;16.88;;
13698;SDS011;6921;53.642;9.956;2022-08-19T04:05:43;27.65;;;17.27;;
13698;SDS011;6921;53.642;9.956;2022-08-19T04:07:47;37.15;;;17.25;;
13698;SDS011;6921;53.642;9.956;2022-08-19T04:09:51;28.50;;;16.73;;
13698;SDS011;6921;53.642;9.956;2022-08-19T04:11:55;33.85;;;18.38;;
13698;SDS011;6921;53.642;9.956;2022-08-19T04:13:59;32.28;;;18.13;;
13698;SDS011;6921;53.642;9.956;2022-08-19T04:16:02;32.25;;;18.10;;
13698;SDS011;6921;53.642;9.956;2022-08-19T04:18:06;30.80;;;17.85;;
13698;SDS011;6921;53.642;9.956;2022-08-19T04:20:10;28.20;;;17.80;;
13698;SDS011;6921;53.642;9.956;2022-08-19T04:22:13;33.75;;;17.98;;
13698;SDS011;6921;53.642;9.956;2022-08-19T04:24:17;31.17;;;17.75;;
13698;SDS011;6921;53.642;9.956;2022-08-19T04:26:22;33.55;;;18.70;;
13698;SDS011;6921;53.642;9.956;2022-08-19T04:28:26;35.88;;;19.45;;
13698;SDS011;6921;53.642;9.956;2022-08-19T04:30:30;30.85;;;19.02;;
13698;SDS011;6921;53.642;9.956;2022-08-19T04:32:33;33.45;;;19.70;;
13698;SDS011;6921;53.642;9.956;2022-08-19T04:34:36;35.95;;;20.08;;
13698;SDS011;6921;53.642;9.956;2022-08-19T04:37:00;37.58;;;20.90;;
13698;SDS011;6921;53.642;9.956;2022-08-19T04:39:04;38.30;;;21.60;;
13698;SDS011;6921;53.642;9.956;2022-08-19T04:41:07;39.15;;;20.73;;
13698;SDS011;6921;53.642;9.956;2022-08-19T04:43:30;37.70;;;21.15;;
13698;SDS011;6921;53.642;9.956;2022-08-19T04:45:35;44.55;;;21.42;;
13698;SDS011;6921;53.642;9.956;2022-08-19T04:47:40;37.40;;;21.40;;
13698;SDS011;6921;53.642;9.956;2022-08-19T04:49:48;37.17;;;21.45;;
13698;SDS011;6921;53.642;9.956;2022-08-19T04:51:52;45.08;;;23.20;;
13698;SDS011;6921;53.642;9.956;2022-08-19T04:53:56;43.50;;;22.48;;
13698;SDS011;6921;53.642;9.956;2022-08-19T04:56:03;38.25;;;22.05;;
13698;SDS011;6921;53.642;9.956;2022-08-19T04:58:06;42.97;;;23.65;;
13698;SDS011;6921;53.642;9.956;2022-08-19T05:00:11;40.97;;;23.20;;
13698;SDS011;6921;53.642;9.956;2022-08-19T05:02:15;40.40;;;22.35;;
13698;SDS011;6921;53.642;9.956;2022-08-19T05:04:19;41.67;;;23.00;;
13698;SDS011;6921;53.642;9.956;2022-08-19T05:06:23;46.25;;;24.25;;
13698;SDS011;6921;53.642;9.956;2022-08-19T05:08:27;48.90;;;24.92;;
13698;SDS011;6921;53.642;9.956;2022-08-19T05:10:32;47.30;;;25.05;;
13698;SDS011;6921;53.642;9.956;2022-08-19T05:12:37;43.85;;;24.02;;
13698;SDS011;6921;53.642;9.956;2022-08-19T05:14:40;44.03;;;23.70;;
13698;SDS011;6921;53.642;9.956;2022-08-19T05:16:45;45.72;;;24.38;;
13698;SDS011;6921;53.642;9.956;2022-08-19T05:18:49;53.80;;;24.33;;
13698;SDS011;6921;53.642;9.956;2022-08-19T05:21:12;46.40;;;25.13;;
13698;SDS011;6921;53.642;9.956;2022-08-19T05:23:33;48.95;;;24.55;;
13698;SDS011;6921;53.642;9.956;2022-08-19T05:25:38;40.97;;;23.20;;
13698;SDS011;6921;53.642;9.956;2022-08-19T05:27:42;40.83;;;23.77;;
13698;SDS011;6921;53.642;9.956;2022-08-19T05:29:45;39.35;;;23.55;;
13698;SDS011;6921;53.642;9.956;2022-08-19T05:31:50;39.33;;;24.45;;
13698;SDS011;6921;53.642;9.956;2022-08-19T05:33:53;43.85;;;23.88;;
13698;SDS011;6921;53.642;9.956;2022-08-19T05:36:00;42.42;;;22.83;;
13698;SDS011;6921;53.642;9.956;2022-08-19T05:38:04;44.95;;;24.23;;
13698;SDS011;6921;53.642;9.956;2022-08-19T05:40:08;39.33;;;24.38;;
13698;SDS011;6921;53.642;9.956;2022-08-19T05:42:12;41.10;;;24.10;;
13698;SDS011;6921;53.642;9.956;2022-08-19T05:44:15;40.63;;;22.92;;
13698;SDS011;6921;53.642;9.956;2022-08-19T05:46:19;42.00;;;23.90;;
13698;SDS011;6921;53.642;9.956;2022-08-19T05:48:29;46.78;;;23.65;;
13698;SDS011;6921;53.642;9.956;2022-08-19T05:50:32;40.17;;;23.25;;
13698;SDS011;6921;53.642;9.956;2022-08-19T05:52:36;42.30;;;24.50;;
13698;SDS011;6921;53.642;9.956;2022-08-19T05:54:44;46.70;;;24.65;;
13698;SDS011;6921;53.642;9.956;2022-08-19T05:56:51;46.65;;;24.90;;
13698;SDS011;6921;53.642;9.956;2022-08-19T05:58:55;47.03;;;25.27;;
13698;SDS011;6921;53.642;9.956;2022-08-19T06:00:59;41.95;;;24.48;;
13698;SDS011;6921;53.642;9.956;2022-08-19T06:03:07;48.83;;;26.23;;
13698;SDS011;6921;53.642;9.956;2022-08-19T06:05:13;46.45;;;25.15;;
13698;SDS011;6921;53.642;9.956;2022-08-19T06:07:16;45.05;;;24.48;;
13698;SDS011;6921;53.642;9.956;2022-08-19T06:09:21;42.75;;;24.33;;
13698;SDS011;6921;53.642;9.956;2022-08-19T06:11:28;44.22;;;24.48;;
13698;SDS011;6921;53.642;9.956;2022-08-19T06:13:34;43.80;;;23.85;;
13698;SDS011;6921;53.642;9.956;2022-08-19T06:15:39;41.85;;;23.88;;
13698;SDS011;6921;53.642;9.956;2022-08-19T06:17:45;44.25;;;25.27;;
13698;SDS011;6921;53.642;9.956;2022-08-19T06:19:48;40.72;;;23.20;;
13698;SDS011;6921;53.642;9.956;2022-08-19T06:21:53;48.58;;;24.20;;
13698;SDS011;6921;53.642;9.956;2022-08-19T06:23:56;43.08;;;24.40;;
13698;SDS011;6921;53.642;9.956;2022-08-19T06:26:00;43.53;;;25.58;;
13698;SDS011;6921;53.642;9.956;2022-08-19T06:28:03;40.20;;;23.55;;
13698;SDS011;6921;53.642;9.956;2022-08-19T06:30:15;46.70;;;25.42;;
13698;SDS011;6921;53.642;9.956;2022-08-19T06:32:18;44.70;;;24.80;;
13698;SDS011;6921;53.642;9.956;2022-08-19T06:34:22;43.00;;;24.00;;
13698;SDS011;6921;53.642;9.956;2022-08-19T06:36:26;50.10;;;24.92;;
13698;SDS011;6921;53.642;9.956;2022-08-19T06:38:34;43.15;;;22.05;;
13698;SDS011;6921;53.642;9.956;2022-08-19T06:40:37;42.95;;;23.95;;
13698;SDS011;6921;53.642;9.956;2022-08-19T06:42:40;47.28;;;25.52;;
13698;SDS011;6921;53.642;9.956;2022-08-19T06:44:49;40.78;;;23.40;;
13698;SDS011;6921;53.642;9.956;2022-08-19T06:46:53;48.42;;;23.52;;
13698;SDS011;6921;53.642;9.956;2022-08-19T06:48:59;45.92;;;24.90;;
13698;SDS011;6921;53.642;9.956;2022-08-19T06:51:03;42.30;;;24.40;;
13698;SDS011;6921;53.642;9.956;2022-08-19T06:53:09;40.33;;;24.10;;
13698;SDS011;6921;53.642;9.956;2022-08-19T06:55:13;49.42;;;25.45;;
13698;SDS011;6921;53.642;9.956;2022-08-19T06:57:16;47.47;;;25.63;;
13698;SDS011;6921;53.642;9.956;2022-08-19T06:59:21;43.30;;;23.92;;
13698;SDS011;6921;53.642;9.956;2022-08-19T07:01:28;45.35;;;25.13;;
13698;SDS011;6921;53.642;9.956;2022-08-19T07:03:32;40.47;;;24.15;;
13698;SDS011;6921;53.642;9.956;2022-08-19T07:05:40;49.67;;;25.02;;
13698;SDS011;6921;53.642;9.956;2022-08-19T07:07:46;41.38;;;23.95;;
13698;SDS011;6921;53.642;9.956;2022-08-19T07:09:49;46.63;;;25.83;;
13698;SDS011;6921;53.642;9.956;2022-08-19T07:12:01;41.97;;;22.50;;
13698;SDS011;6921;53.642;9.956;2022-08-19T07:14:07;45.55;;;24.27;;
13698;SDS011;6921;53.642;9.956;2022-08-19T07:16:17;40.40;;;23.52;;
13698;SDS011;6921;53.642;9.956;2022-08-19T07:18:29;38.65;;;23.48;;
13698;SDS011;6921;53.642;9.956;2022-08-19T07:20:32;44.80;;;24.08;;
13698;SDS011;6921;53.642;9.956;2022-08-19T07:22:35;40.78;;;23.45;;
13698;SDS011;6921;53.642;9.956;2022-08-19T07:24:39;40.15;;;22.20;;
13698;SDS011;6921;53.642;9.956;2022-08-19T07:26:43;37.63;;;22.73;;
13698;SDS011;6921;53.642;9.956;2022-08-19T07:28:48;37.25;;;22.75;;
13698;SDS011;6921;53.642;9.956;2022-08-19T07:30:53;36.88;;;22.92;;
13698;SDS011;6921;53.642;9.956;2022-08-19T07:32:56;38.97;;;22.33;;
13698;SDS011;6921;53.642;9.956;2022-08-19T07:35:00;38.25;;;22.65;;
13698;SDS011;6921;53.642;9.956;2022-08-19T07:37:05;36.05;;;22.33;;
13698;SDS011;6921;53.642;9.956;2022-08-19T07:39:09;38.83;;;22.40;;
13698;SDS011;6921;53.642;9.956;2022-08-19T07:41:14;32.70;;;20.55;;
13698;SDS011;6921;53.642;9.956;2022-08-19T07:43:18;35.83;;;22.42;;
13698;SDS011;6921;53.642;9.956;2022-08-19T07:45:25;34.53;;;20.88;;
13698;SDS011;6921;53.642;9.956;2022-08-19T07:47:33;30.40;;;20.60;;
13698;SDS011;6921;53.642;9.956;2022-08-19T07:49:50;31.73;;;20.75;;
13698;SDS011;6921;53.642;9.956;2022-08-19T07:51:55;34.72;;;21.48;;
13698;SDS011;6921;53.642;9.956;2022-08-19T07:53:58;30.63;;;19.65;;
13698;SDS011;6921;53.642;9.956;2022-08-19T07:56:02;31.83;;;19.50;;
13698;SDS011;6921;53.642;9.956;2022-08-19T07:58:05;32.13;;;19.05;;
13698;SDS011;6921;53.642;9.956;2022-08-19T08:00:09;27.45;;;18.27;;
13698;SDS011;6921;53.642;9.956;2022-08-19T08:02:14;32.92;;;19.38;;
13698;SDS011;6921;53.642;9.956;2022-08-19T08:04:17;29.58;;;17.90;;
13698;SDS011;6921;53.642;9.956;2022-08-19T08:06:38;25.80;;;17.45;;
13698;SDS011;6921;53.642;9.956;2022-08-19T08:08:59;24.83;;;16.42;;
13698;SDS011;6921;53.642;9.956;2022-08-19T08:11:20;27.02;;;16.70;;
13698;SDS011;6921;53.642;9.956;2022-08-19T08:13:24;25.92;;;16.33;;
13698;SDS011;6921;53.642;9.956;2022-08-19T08:15:28;25.52;;;16.25;;
13698;SDS011;6921;53.642;9.956;2022-08-19T08:17:32;23.92;;;16.33;;
13698;SDS011;6921;53.642;9.956;2022-08-19T08:19:50;23.00;;;15.18;;
13698;SDS011;6921;53.642;9.956;2022-08-19T08:21:53;24.98;;;15.57;;
13698;SDS011;6921;53.642;9.956;2022-08-19T08:23:57;24.20;;;15.68;;
13698;SDS011;6921;53.642;9.956;2022-08-19T08:26:05;21.58;;;14.73;;
13698;SDS011;6921;53.642;9.956;2022-08-19T08:28:08;25.67;;;15.77;;
13698;SDS011;6921;53.642;9.956;2022-08-19T08:30:19;26.30;;;16.20;;
13698;SDS011;6921;53.642;9.956;2022-08-19T08:32:22;25.40;;;14.95;;
13698;SDS011;6921;53.642;9.956;2022-08-19T08:34:27;24.33;;;15.25;;
13698;SDS011;6921;53.642;9.956;2022-08-19T08:36:31;28.58;;;16.83;;
13698;SDS011;6921;53.642;9.956;2022-08-19T08:38:35;24.17;;;15.13;;
13698;SDS011;6921;53.642;9.956;2022-08-19T08:40:42;25.05;;;15.75;;
13698;SDS011;6921;53.642;9.956;2022-08-19T08:42:47;22.20;;;16.30;;
13698;SDS011;6921;53.642;9.956;2022-08-19T08:44:53;22.80;;;14.60;;
13698;SDS011;6921;53.642;9.956;2022-08-19T08:47:01;22.85;;;15.50;;
13698;SDS011;6921;53.642;9.956;2022-08-19T08:49:09;22.23;;;15.25;;
13698;SDS011;6921;53.642;9.956;2022-08-19T08:51:18;20.92;;;14.23;;
13698;SDS011;6921;53.642;9.956;2022-08-19T08:53:23;26.10;;;15.30;;
13698;SDS011;6921;53.642;9.956;2022-08-19T08:55:29;21.35;;;14.85;;
13698;SDS011;6921;53.642;9.956;2022-08-19T08:57:37;25.45;;;15.38;;
13698;SDS011;6921;53.642;9.956;2022-08-19T08:59:43;22.65;;;15.30;;
13698;SDS011;6921;53.642;9.956;2022-08-19T09:01:52;26.27;;;14.98;;
13698;SDS011;6921;53.642;9.956;2022-08-19T09:03:55;22.17;;;14.35;;
13698;SDS011;6921;53.642;9.956;2022-08-19T09:06:04;19.80;;;14.80;;
13698;SDS011;6921;53.642;9.956;2022-08-19T09:08:16;29.63;;;16.35;;
13698;SDS011;6921;53.642;9.956;2022-08-19T09:10:22;28.08;;;15.48;;
13698;SDS011;6921;53.642;9.956;2022-08-19T09:12:30;20.80;;;13.20;;
13698;SDS011;6921;53.642;9.956;2022-08-19T09:14:39;21.50;;;13.30;;
13698;SDS011;6921;53.642;9.956;2022-08-19T09:16:51;25.83;;;14.10;;
13698;SDS011;6921;53.642;9.956;2022-08-19T09:18:55;19.73;;;12.48;;
13698;SDS011;6921;53.642;9.956;2022-08-19T09:21:00;18.88;;;13.35;;
13698;SDS011;6921;53.642;9.956;2022-08-19T09:23:03;19.40;;;12.27;;
13698;SDS011;6921;53.642;9.956;2022-08-19T09:25:08;20.40;;;12.35;;
13698;SDS011;6921;53.642;9.956;2022-08-19T09:27:12;18.85;;;11.60;;
13698;SDS011;6921;53.642;9.956;2022-08-19T09:29:18;17.42;;;11.68;;
13698;SDS011;6921;53.642;9.956;2022-08-19T09:31:23;18.50;;;12.05;;
13698;SDS011;6921;53.642;9.956;2022-08-19T09:33:27;19.05;;;11.60;;
13698;SDS011;6921;53.642;9.956;2022-08-19T09:35:30;18.27;;;11.15;;
13698;SDS011;6921;53.642;9.956;2022-08-19T09:37:34;19.75;;;11.13;;
13698;SDS011;6921;53.642;9.956;2022-08-19T09:39:37;16.45;;;11.75;;
13698;SDS011;6921;53.642;9.956;2022-08-19T09:41:43;15.93;;;11.57;;
13698;SDS011;6921;53.642;9.956;2022-08-19T09:43:48;14.45;;;10.82;;
13698;SDS011;6921;53.642;9.956;2022-08-19T09:45:55;17.58;;;11.32;;
13698;SDS011;6921;53.642;9.956;2022-08-19T09:47:58;15.73;;;12.15;;
13698;SDS011;6921;53.642;9.956;2022-08-19T09:50:01;14.90;;;10.95;;
13698;SDS011;6921;53.642;9.956;2022-08-19T09:52:05;14.55;;;11.50;;
13698;SDS011;6921;53.642;9.956;2022-08-19T09:54:08;15.60;;;12.13;;
13698;SDS011;6921;53.642;9.956;2022-08-19T09:56:12;17.35;;;11.77;;
13698;SDS011;6921;53.642;9.956;2022-08-19T09:58:17;19.20;;;11.95;;
13698;SDS011;6921;53.642;9.956;2022-08-19T10:00:24;16.85;;;12.23;;
13698;SDS011;6921;53.642;9.956;2022-08-19T10:02:28;16.73;;;11.40;;
13698;SDS011;6921;53.642;9.956;2022-08-19T10:04:31;19.55;;;11.93;;
13698;SDS011;6921;53.642;9.956;2022-08-19T10:06:49;18.05;;;12.65;;
13698;SDS011;6921;53.642;9.956;2022-08-19T10:08:54;20.35;;;13.35;;
13698;SDS011;6921;53.642;9.956;2022-08-19T10:10:57;20.67;;;12.80;;
13698;SDS011;6921;53.642;9.956;2022-08-19T10:13:23;16.42;;;12.65;;
13698;SDS011;6921;53.642;9.956;2022-08-19T10:15:27;17.65;;;12.70;;
13698;SDS011;6921;53.642;9.956;2022-08-19T10:17:30;17.27;;;13.13;;
13698;SDS011;6921;53.642;9.956;2022-08-19T10:19:34;19.45;;;13.68;;
13698;SDS011;6921;53.642;9.956;2022-08-19T10:21:38;20.08;;;12.80;;
13698;SDS011;6921;53.642;9.956;2022-08-19T10:23:42;20.75;;;14.55;;
13698;SDS011;6921;53.642;9.956;2022-08-19T10:25:46;23.10;;;15.38;;
13698;SDS011;6921;53.642;9.956;2022-08-19T10:27:50;22.33;;;14.65;;
13698;SDS011;6921;53.642;9.956;2022-08-19T10:29:55;20.60;;;14.23;;
13698;SDS011;6921;53.642;9.956;2022-08-19T10:31:59;22.70;;;15.38;;
13698;SDS011;6921;53.642;9.956;2022-08-19T10:34:03;19.77;;;14.63;;
13698;SDS011;6921;53.642;9.956;2022-08-19T10:36:07;21.80;;;15.45;;
13698;SDS011;6921;53.642;9.956;2022-08-19T10:38:11;22.63;;;15.50;;
13698;SDS011;6921;53.642;9.956;2022-08-19T10:40:14;23.98;;;15.77;;
13698;SDS011;6921;53.642;9.956;2022-08-19T10:42:18;22.45;;;16.73;;
13698;SDS011;6921;53.642;9.956;2022-08-19T10:44:22;22.13;;;14.57;;
13698;SDS011;6921;53.642;9.956;2022-08-19T10:46:28;21.55;;;14.57;;
13698;SDS011;6921;53.642;9.956;2022-08-19T10:48:33;26.38;;;15.23;;
13698;SDS011;6921;53.642;9.956;2022-08-19T10:50:36;25.83;;;15.55;;
13698;SDS011;6921;53.642;9.956;2022-08-19T10:53:02;21.90;;;14.85;;
13698;SDS011;6921;53.642;9.956;2022-08-19T10:55:08;22.13;;;15.60;;
13698;SDS011;6921;53.642;9.956;2022-08-19T10:57:29;24.98;;;14.52;;
13698;SDS011;6921;53.642;9.956;2022-08-19T10:59:52;24.75;;;14.77;;
13698;SDS011;6921;53.642;9.956;2022-08-19T11:01:59;22.05;;;13.88;;
13698;SDS011;6921;53.642;9.956;2022-08-19T11:04:03;21.85;;;14.35;;
13698;SDS011;6921;53.642;9.956;2022-08-19T11:06:10;20.08;;;13.65;;
13698;SDS011;6921;53.642;9.956;2022-08-19T11:08:13;17.90;;;13.40;;
13698;SDS011;6921;53.642;9.956;2022-08-19T11:10:21;22.45;;;13.45;;
13698;SDS011;6921;53.642;9.956;2022-08-19T11:12:25;15.68;;;12.93;;
13698;SDS011;6921;53.642;9.956;2022-08-19T11:14:29;20.05;;;13.93;;
13698;SDS011;6921;53.642;9.956;2022-08-19T11:16:34;17.13;;;12.68;;
13698;SDS011;6921;53.642;9.956;2022-08-19T11:18:41;17.10;;;12.88;;
13698;SDS011;6921;53.642;9.956;2022-08-19T11:20:48;20.23;;;13.75;;
13698;SDS011;6921;53.642;9.956;2022-08-19T11:22:51;20.30;;;13.98;;
13698;SDS011;6921;53.642;9.956;2022-08-19T11:24:55;15.98;;;12.13;;
13698;SDS011;6921;53.642;9.956;2022-08-19T11:27:00;18.60;;;12.07;;
13698;SDS011;6921;53.642;9.956;2022-08-19T11:29:06;14.95;;;11.35;;
13698;SDS011;6921;53.642;9.956;2022-08-19T11:31:12;16.13;;;11.88;;
13698;SDS011;6921;53.642;9.956;2022-08-19T11:33:15;13.57;;;11.38;;
13698;SDS011;6921;53.642;9.956;2022-08-19T11:35:20;14.40;;;11.60;;
13698;SDS011;6921;53.642;9.956;2022-08-19T11:37:24;19.98;;;12.70;;
13698;SDS011;6921;53.642;9.956;2022-08-19T11:39:28;15.15;;;11.93;;
13698;SDS011;6921;53.642;9.956;2022-08-19T11:41:32;14.52;;;10.85;;
13698;SDS011;6921;53.642;9.956;2022-08-19T11:43:36;14.90;;;11.20;;
13698;SDS011;6921;53.642;9.956;2022-08-19T11:45:41;17.13;;;12.23;;
13698;SDS011;6921;53.642;9.956;2022-08-19T11:47:44;16.50;;;12.65;;
13698;SDS011;6921;53.642;9.956;2022-08-19T11:49:48;15.85;;;11.85;;
13698;SDS011;6921;53.642;9.956;2022-08-19T11:51:55;15.27;;;11.20;;
13698;SDS011;6921;53.642;9.956;2022-08-19T11:53:59;13.85;;;11.07;;
13698;SDS011;6921;53.642;9.956;2022-08-19T11:56:03;12.00;;;10.10;;
13698;SDS011;6921;53.642;9.956;2022-08-19T11:58:06;11.93;;;10.50;;
13698;SDS011;6921;53.642;9.956;2022-08-19T12:00:16;14.57;;;10.55;;
13698;SDS011;6921;53.642;9.956;2022-08-19T12:02:20;13.48;;;9.65;;
13698;SDS011;6921;53.642;9.956;2022-08-19T12:04:24;14.68;;;10.30;;
13698;SDS011;6921;53.642;9.956;2022-08-19T12:06:29;16.27;;;10.65;;
13698;SDS011;6921;53.642;9.956;2022-08-19T12:08:34;17.35;;;11.35;;
13698;SDS011;6921;53.642;9.956;2022-08-19T12:10:38;13.20;;;10.73;;
13698;SDS011;6921;53.642;9.956;2022-08-19T12:12:42;13.73;;;10.23;;
13698;SDS011;6921;53.642;9.956;2022-08-19T12:14:47;16.63;;;10.75;;
13698;SDS011;6921;53.642;9.956;2022-08-19T12:16:52;15.48;;;11.13;;
13698;SDS011;6921;53.642;9.956;2022-08-19T12:18:55;16.63;;;11.43;;
13698;SDS011;6921;53.642;9.956;2022-08-19T12:21:00;12.70;;;9.77;;
13698;SDS011;6921;53.642;9.956;2022-08-19T12:23:04;15.05;;;11.18;;
13698;SDS011;6921;53.642;9.956;2022-08-19T12:25:10;12.98;;;10.65;;